This is the latest recevied weather packets stored in our database for station/object DG9LAO-6. If no packets are shown the sender has not sent any weather packets the latest 10 day(s).
| Time | Temp. | Humidity | Pressure | Rain* | Wind** | Luminosity | Snow |
|---|---|---|---|---|---|---|---|
| 1777438150 | 3.33° C | 84% | 1028.7 hPa | 0 mm | - | - | - |
| 1777435149 | 2.78° C | 81% | 1028.6 hPa | 0 mm | - | - | - |
| 1777434549 | 3.33° C | 81% | 1028.7 hPa | 0 mm | - | - | - |
| 1777431549 | 3.89° C | 78% | 1028.4 hPa | 0 mm | - | - | - |
| 1777429748 | 4.44° C | 77% | 1028.2 hPa | 0 mm | - | - | - |
| 1777429148 | 5° C | 77% | 1028.2 hPa | 0 mm | - | - | - |
| 1777428548 | 5° C | 77% | 1028.4 hPa | 0 mm | - | - | - |
| 1777418950 | 6.11° C | 75% | 1028.3 hPa | 0 mm | - | - | - |
| 1777417150 | 6.11° C | 74% | 1028.2 hPa | 0 mm | - | - | - |
| 1777410549 | 7.78° C | 69% | 1027.4 hPa | 0 mm | - | - | - |
| 1777406952 | 8.89° C | 65% | 1027 hPa | 0 mm | - | - | - |
| 1777405752 | 9.44° C | 63% | 1026.9 hPa | 0 mm | - | - | - |
| 1777403351 | 10.56° C | 62% | 1026.8 hPa | 0 mm | - | - | - |
| 1777392553 | 13.33° C | 53% | 1028.5 hPa | 0 mm | - | - | - |
| 1777392550 | 13.33° C | 53% | 1026.8 hPa | 0 mm | - | - | - |
| 1777391953 | 13.89° C | 54% | 1028.6 hPa | 0 mm | - | - | - |
| 1777391949 | 13.89° C | 54% | 1026.8 hPa | 0 mm | - | - | - |
| 1777382352 | 14.44° C | 51% | 1028.3 hPa | 0 mm | - | - | - |
| 1777367353 | 12.22° C | 71% | 1027.4 hPa | 0 mm | - | - | - |
| 1777366753 | 12.22° C | 73% | 1027.4 hPa | 0 mm | - | - | - |
* Rain latest hour (hover to see other rain measurements)
** Current wind speed in m/s (hover to see current wind gust speed)